sensor_id;sensor_type;location;lat;lon;timestamp;P1;durP1;ratioP1;P2;durP2;ratioP2
78181;SDS011;67441;50.116;8.696;2023-07-02T00:00:21;3.58;;;2.40;;
78181;SDS011;67441;50.116;8.696;2023-07-02T00:01:12;3.47;;;2.03;;
78181;SDS011;67441;50.116;8.696;2023-07-02T00:02:03;2.97;;;2.22;;
78181;SDS011;67441;50.116;8.696;2023-07-02T00:02:54;2.45;;;2.00;;
78181;SDS011;67441;50.116;8.696;2023-07-02T00:03:46;5.18;;;2.33;;
78181;SDS011;67441;50.116;8.696;2023-07-02T00:04:41;2.95;;;2.13;;
78181;SDS011;67441;50.116;8.696;2023-07-02T00:05:32;4.55;;;2.08;;
78181;SDS011;67441;50.116;8.696;2023-07-02T00:05:57;3.88;;;2.55;;
78181;SDS011;67441;50.116;8.696;2023-07-02T00:06:48;6.75;;;2.65;;
78181;SDS011;67441;50.116;8.696;2023-07-02T00:07:13;5.63;;;2.50;;
78181;SDS011;67441;50.116;8.696;2023-07-02T00:07:42;3.13;;;2.08;;
78181;SDS011;67441;50.116;8.696;2023-07-02T00:08:33;3.65;;;2.20;;
78181;SDS011;67441;50.116;8.696;2023-07-02T00:08:59;2.67;;;1.98;;
78181;SDS011;67441;50.116;8.696;2023-07-02T00:09:49;3.70;;;2.30;;
78181;SDS011;67441;50.116;8.696;2023-07-02T00:10:40;3.47;;;1.98;;
78181;SDS011;67441;50.116;8.696;2023-07-02T00:11:30;4.88;;;3.13;;
78181;SDS011;67441;50.116;8.696;2023-07-02T00:12:21;2.72;;;2.10;;
78181;SDS011;67441;50.116;8.696;2023-07-02T00:13:13;3.45;;;2.10;;
78181;SDS011;67441;50.116;8.696;2023-07-02T00:13:39;3.15;;;2.10;;
78181;SDS011;67441;50.116;8.696;2023-07-02T00:14:33;3.38;;;2.45;;
78181;SDS011;67441;50.116;8.696;2023-07-02T00:15:25;3.03;;;1.85;;
78181;SDS011;67441;50.116;8.696;2023-07-02T00:16:15;1.88;;;1.55;;
78181;SDS011;67441;50.116;8.696;2023-07-02T00:17:10;2.97;;;2.40;;
78181;SDS011;67441;50.116;8.696;2023-07-02T00:17:38;3.55;;;1.73;;
78181;SDS011;67441;50.116;8.696;2023-07-02T00:18:04;4.15;;;1.98;;
78181;SDS011;67441;50.116;8.696;2023-07-02T00:18:59;5.07;;;1.63;;
78181;SDS011;67441;50.116;8.696;2023-07-02T00:19:50;2.95;;;1.58;;
78181;SDS011;67441;50.116;8.696;2023-07-02T00:20:16;2.50;;;1.55;;
78181;SDS011;67441;50.116;8.696;2023-07-02T00:21:08;2.78;;;2.00;;
78181;SDS011;67441;50.116;8.696;2023-07-02T00:21:38;3.45;;;2.00;;
78181;SDS011;67441;50.116;8.696;2023-07-02T00:22:29;4.03;;;2.28;;
78181;SDS011;67441;50.116;8.696;2023-07-02T00:23:21;4.30;;;2.10;;
78181;SDS011;67441;50.116;8.696;2023-07-02T00:24:12;2.42;;;1.80;;
78181;SDS011;67441;50.116;8.696;2023-07-02T00:25:03;3.60;;;1.80;;
78181;SDS011;67441;50.116;8.696;2023-07-02T00:25:54;2.40;;;1.65;;
78181;SDS011;67441;50.116;8.696;2023-07-02T00:26:45;4.18;;;2.10;;
78181;SDS011;67441;50.116;8.696;2023-07-02T00:27:36;3.05;;;1.77;;
78181;SDS011;67441;50.116;8.696;2023-07-02T00:28:03;2.65;;;1.67;;
78181;SDS011;67441;50.116;8.696;2023-07-02T00:28:54;2.70;;;1.60;;
78181;SDS011;67441;50.116;8.696;2023-07-02T00:29:20;3.75;;;1.90;;
78181;SDS011;67441;50.116;8.696;2023-07-02T00:30:11;3.95;;;1.80;;
78181;SDS011;67441;50.116;8.696;2023-07-02T00:31:02;4.35;;;1.63;;
78181;SDS011;67441;50.116;8.696;2023-07-02T00:31:53;3.70;;;1.63;;
78181;SDS011;67441;50.116;8.696;2023-07-02T00:32:44;3.50;;;1.50;;
78181;SDS011;67441;50.116;8.696;2023-07-02T00:33:35;3.80;;;1.80;;
78181;SDS011;67441;50.116;8.696;2023-07-02T00:34:29;2.42;;;1.70;;
78181;SDS011;67441;50.116;8.696;2023-07-02T00:35:20;5.18;;;2.20;;
78181;SDS011;67441;50.116;8.696;2023-07-02T00:35:45;4.20;;;2.15;;
78181;SDS011;67441;50.116;8.696;2023-07-02T00:36:39;3.72;;;2.03;;
78181;SDS011;67441;50.116;8.696;2023-07-02T00:37:06;3.50;;;2.50;;
78181;SDS011;67441;50.116;8.696;2023-07-02T00:37:57;4.82;;;2.08;;
78181;SDS011;67441;50.116;8.696;2023-07-02T00:38:48;2.30;;;1.80;;
78181;SDS011;67441;50.116;8.696;2023-07-02T00:39:14;4.20;;;2.15;;
78181;SDS011;67441;50.116;8.696;2023-07-02T00:39:41;3.42;;;2.08;;
78181;SDS011;67441;50.116;8.696;2023-07-02T00:40:32;3.42;;;2.05;;
78181;SDS011;67441;50.116;8.696;2023-07-02T00:41:23;3.05;;;1.80;;
78181;SDS011;67441;50.116;8.696;2023-07-02T00:42:14;3.28;;;2.10;;
78181;SDS011;67441;50.116;8.696;2023-07-02T00:43:05;3.28;;;1.92;;
78181;SDS011;67441;50.116;8.696;2023-07-02T00:43:55;4.18;;;2.10;;
78181;SDS011;67441;50.116;8.696;2023-07-02T00:44:46;3.67;;;2.03;;
78181;SDS011;67441;50.116;8.696;2023-07-02T00:45:12;3.55;;;2.25;;
78181;SDS011;67441;50.116;8.696;2023-07-02T00:46:03;2.83;;;1.80;;
78181;SDS011;67441;50.116;8.696;2023-07-02T00:46:30;3.45;;;2.15;;
78181;SDS011;67441;50.116;8.696;2023-07-02T00:47:20;2.95;;;2.03;;
78181;SDS011;67441;50.116;8.696;2023-07-02T00:48:12;2.40;;;1.92;;
78181;SDS011;67441;50.116;8.696;2023-07-02T00:49:04;2.42;;;1.90;;
78181;SDS011;67441;50.116;8.696;2023-07-02T00:49:29;3.42;;;1.92;;
78181;SDS011;67441;50.116;8.696;2023-07-02T00:50:21;2.80;;;2.22;;
78181;SDS011;67441;50.116;8.696;2023-07-02T00:50:47;3.67;;;2.03;;
78181;SDS011;67441;50.116;8.696;2023-07-02T00:51:45;6.13;;;2.20;;
78181;SDS011;67441;50.116;8.696;2023-07-02T00:52:36;4.95;;;2.25;;
78181;SDS011;67441;50.116;8.696;2023-07-02T00:53:03;4.10;;;2.17;;
78181;SDS011;67441;50.116;8.696;2023-07-02T00:53:54;3.92;;;2.00;;
78181;SDS011;67441;50.116;8.696;2023-07-02T00:54:21;4.07;;;1.75;;
78181;SDS011;67441;50.116;8.696;2023-07-02T00:55:12;2.97;;;2.00;;
78181;SDS011;67441;50.116;8.696;2023-07-02T00:56:02;4.15;;;2.08;;
78181;SDS011;67441;50.116;8.696;2023-07-02T00:56:54;3.92;;;2.28;;
78181;SDS011;67441;50.116;8.696;2023-07-02T00:57:45;4.03;;;2.25;;
78181;SDS011;67441;50.116;8.696;2023-07-02T00:58:11;2.95;;;1.83;;
78181;SDS011;67441;50.116;8.696;2023-07-02T00:58:41;3.67;;;2.05;;
78181;SDS011;67441;50.116;8.696;2023-07-02T00:59:15;2.97;;;1.92;;
78181;SDS011;67441;50.116;8.696;2023-07-02T01:00:06;2.97;;;1.90;;
78181;SDS011;67441;50.116;8.696;2023-07-02T01:00:32;4.82;;;2.00;;
78181;SDS011;67441;50.116;8.696;2023-07-02T01:01:24;4.47;;;1.85;;
78181;SDS011;67441;50.116;8.696;2023-07-02T01:01:50;3.78;;;1.80;;
78181;SDS011;67441;50.116;8.696;2023-07-02T01:02:41;3.05;;;1.95;;
78181;SDS011;67441;50.116;8.696;2023-07-02T01:03:10;2.67;;;2.03;;
78181;SDS011;67441;50.116;8.696;2023-07-02T01:03:36;2.55;;;1.75;;
78181;SDS011;67441;50.116;8.696;2023-07-02T01:04:29;4.03;;;1.90;;
78181;SDS011;67441;50.116;8.696;2023-07-02T01:05:23;5.72;;;2.20;;
78181;SDS011;67441;50.116;8.696;2023-07-02T01:06:13;2.95;;;2.10;;
78181;SDS011;67441;50.116;8.696;2023-07-02T01:06:40;4.72;;;2.30;;
78181;SDS011;67441;50.116;8.696;2023-07-02T01:07:34;3.05;;;2.33;;
78181;SDS011;67441;50.116;8.696;2023-07-02T01:08:35;3.97;;;2.03;;
78181;SDS011;67441;50.116;8.696;2023-07-02T01:09:27;4.30;;;2.20;;
78181;SDS011;67441;50.116;8.696;2023-07-02T01:10:18;6.03;;;2.15;;
78181;SDS011;67441;50.116;8.696;2023-07-02T01:11:09;3.58;;;2.33;;
78181;SDS011;67441;50.116;8.696;2023-07-02T01:12:03;3.72;;;1.88;;
78181;SDS011;67441;50.116;8.696;2023-07-02T01:12:33;3.17;;;2.17;;
78181;SDS011;67441;50.116;8.696;2023-07-02T01:13:00;2.63;;;1.92;;
78181;SDS011;67441;50.116;8.696;2023-07-02T01:13:29;2.97;;;2.00;;
78181;SDS011;67441;50.116;8.696;2023-07-02T01:14:30;4.13;;;2.00;;
78181;SDS011;67441;50.116;8.696;2023-07-02T01:14:59;5.32;;;1.80;;
78181;SDS011;67441;50.116;8.696;2023-07-02T01:15:27;4.40;;;2.00;;
78181;SDS011;67441;50.116;8.696;2023-07-02T01:16:18;5.53;;;2.28;;
78181;SDS011;67441;50.116;8.696;2023-07-02T01:16:45;3.67;;;2.10;;
78181;SDS011;67441;50.116;8.696;2023-07-02T01:17:12;4.55;;;2.10;;
78181;SDS011;67441;50.116;8.696;2023-07-02T01:18:07;3.15;;;1.70;;
78181;SDS011;67441;50.116;8.696;2023-07-02T01:18:58;3.65;;;1.73;;
78181;SDS011;67441;50.116;8.696;2023-07-02T01:20:17;3.78;;;2.05;;
78181;SDS011;67441;50.116;8.696;2023-07-02T01:20:44;4.20;;;1.88;;
78181;SDS011;67441;50.116;8.696;2023-07-02T01:21:12;3.60;;;2.22;;
78181;SDS011;67441;50.116;8.696;2023-07-02T01:22:03;3.17;;;1.77;;
78181;SDS011;67441;50.116;8.696;2023-07-02T01:22:55;4.15;;;2.08;;
78181;SDS011;67441;50.116;8.696;2023-07-02T01:23:21;3.15;;;1.83;;
78181;SDS011;67441;50.116;8.696;2023-07-02T01:24:12;4.35;;;1.88;;
78181;SDS011;67441;50.116;8.696;2023-07-02T01:24:39;2.22;;;1.92;;
78181;SDS011;67441;50.116;8.696;2023-07-02T01:25:05;3.78;;;1.80;;
78181;SDS011;67441;50.116;8.696;2023-07-02T01:25:33;3.28;;;2.03;;
78181;SDS011;67441;50.116;8.696;2023-07-02T01:26:01;4.68;;;1.77;;
78181;SDS011;67441;50.116;8.696;2023-07-02T01:26:56;3.00;;;1.90;;
78181;SDS011;67441;50.116;8.696;2023-07-02T01:27:24;3.90;;;1.70;;
78181;SDS011;67441;50.116;8.696;2023-07-02T01:27:53;5.00;;;2.17;;
78181;SDS011;67441;50.116;8.696;2023-07-02T01:28:20;3.53;;;1.90;;
78181;SDS011;67441;50.116;8.696;2023-07-02T01:28:49;5.40;;;1.98;;
78181;SDS011;67441;50.116;8.696;2023-07-02T01:29:16;2.25;;;1.45;;
78181;SDS011;67441;50.116;8.696;2023-07-02T01:29:42;3.30;;;1.63;;
78181;SDS011;67441;50.116;8.696;2023-07-02T01:30:11;2.70;;;1.60;;
78181;SDS011;67441;50.116;8.696;2023-07-02T01:31:03;3.20;;;1.30;;
78181;SDS011;67441;50.116;8.696;2023-07-02T01:31:30;3.75;;;1.73;;
78181;SDS011;67441;50.116;8.696;2023-07-02T01:32:21;4.00;;;1.80;;
78181;SDS011;67441;50.116;8.696;2023-07-02T01:33:12;3.58;;;1.80;;
78181;SDS011;67441;50.116;8.696;2023-07-02T01:34:03;3.97;;;1.80;;
78181;SDS011;67441;50.116;8.696;2023-07-02T01:34:29;4.70;;;2.17;;
78181;SDS011;67441;50.116;8.696;2023-07-02T01:35:20;3.38;;;1.65;;
78181;SDS011;67441;50.116;8.696;2023-07-02T01:36:11;4.22;;;1.60;;
78181;SDS011;67441;50.116;8.696;2023-07-02T01:37:03;2.95;;;1.60;;
78181;SDS011;67441;50.116;8.696;2023-07-02T01:37:29;3.15;;;1.70;;
78181;SDS011;67441;50.116;8.696;2023-07-02T01:38:02;2.40;;;1.70;;
78181;SDS011;67441;50.116;8.696;2023-07-02T01:38:53;3.40;;;1.85;;
78181;SDS011;67441;50.116;8.696;2023-07-02T01:39:44;4.35;;;1.80;;
78181;SDS011;67441;50.116;8.696;2023-07-02T01:40:35;3.63;;;2.08;;
78181;SDS011;67441;50.116;8.696;2023-07-02T01:41:26;3.50;;;2.00;;
78181;SDS011;67441;50.116;8.696;2023-07-02T01:41:53;3.53;;;1.67;;
78181;SDS011;67441;50.116;8.696;2023-07-02T01:42:20;3.13;;;1.77;;
78181;SDS011;67441;50.116;8.696;2023-07-02T01:43:11;2.47;;;1.73;;
78181;SDS011;67441;50.116;8.696;2023-07-02T01:44:02;2.67;;;1.67;;
78181;SDS011;67441;50.116;8.696;2023-07-02T01:44:53;3.13;;;1.90;;
78181;SDS011;67441;50.116;8.696;2023-07-02T01:45:43;4.63;;;1.77;;
78181;SDS011;67441;50.116;8.696;2023-07-02T01:46:34;3.03;;;1.73;;
78181;SDS011;67441;50.116;8.696;2023-07-02T01:47:25;3.08;;;2.00;;
78181;SDS011;67441;50.116;8.696;2023-07-02T01:48:15;2.83;;;1.60;;
78181;SDS011;67441;50.116;8.696;2023-07-02T01:49:06;4.88;;;1.98;;
78181;SDS011;67441;50.116;8.696;2023-07-02T01:49:57;4.43;;;1.65;;
78181;SDS011;67441;50.116;8.696;2023-07-02T01:50:48;4.05;;;2.10;;
78181;SDS011;67441;50.116;8.696;2023-07-02T01:51:39;4.78;;;1.80;;
78181;SDS011;67441;50.116;8.696;2023-07-02T01:52:30;4.80;;;1.75;;
78181;SDS011;67441;50.116;8.696;2023-07-02T01:52:58;3.67;;;1.80;;
78181;SDS011;67441;50.116;8.696;2023-07-02T01:53:48;3.58;;;1.55;;
78181;SDS011;67441;50.116;8.696;2023-07-02T01:54:39;4.07;;;1.85;;
78181;SDS011;67441;50.116;8.696;2023-07-02T01:55:30;3.28;;;1.67;;
78181;SDS011;67441;50.116;8.696;2023-07-02T01:56:21;3.50;;;1.83;;
78181;SDS011;67441;50.116;8.696;2023-07-02T01:57:12;2.58;;;1.80;;
78181;SDS011;67441;50.116;8.696;2023-07-02T01:58:03;5.78;;;2.20;;
78181;SDS011;67441;50.116;8.696;2023-07-02T01:58:54;3.03;;;1.77;;
78181;SDS011;67441;50.116;8.696;2023-07-02T01:59:45;3.17;;;1.73;;
78181;SDS011;67441;50.116;8.696;2023-07-02T02:00:35;5.20;;;1.80;;
78181;SDS011;67441;50.116;8.696;2023-07-02T02:01:26;3.88;;;2.00;;
78181;SDS011;67441;50.116;8.696;2023-07-02T02:02:17;2.88;;;1.92;;
78181;SDS011;67441;50.116;8.696;2023-07-02T02:03:08;3.90;;;1.98;;
78181;SDS011;67441;50.116;8.696;2023-07-02T02:03:58;4.03;;;2.10;;
78181;SDS011;67441;50.116;8.696;2023-07-02T02:04:24;4.15;;;1.90;;
78181;SDS011;67441;50.116;8.696;2023-07-02T02:05:15;3.22;;;1.75;;
78181;SDS011;67441;50.116;8.696;2023-07-02T02:06:05;3.30;;;1.98;;
78181;SDS011;67441;50.116;8.696;2023-07-02T02:06:56;3.22;;;1.73;;
78181;SDS011;67441;50.116;8.696;2023-07-02T02:07:47;4.28;;;2.10;;
78181;SDS011;67441;50.116;8.696;2023-07-02T02:08:37;5.00;;;2.03;;
78181;SDS011;67441;50.116;8.696;2023-07-02T02:09:29;3.28;;;2.17;;
78181;SDS011;67441;50.116;8.696;2023-07-02T02:09:57;3.30;;;1.58;;
78181;SDS011;67441;50.116;8.696;2023-07-02T02:10:47;2.63;;;1.73;;
78181;SDS011;67441;50.116;8.696;2023-07-02T02:11:40;3.17;;;1.50;;
78181;SDS011;67441;50.116;8.696;2023-07-02T02:12:07;3.72;;;2.03;;
78181;SDS011;67441;50.116;8.696;2023-07-02T02:12:58;4.75;;;1.80;;
78181;SDS011;67441;50.116;8.696;2023-07-02T02:13:49;4.55;;;2.03;;
78181;SDS011;67441;50.116;8.696;2023-07-02T02:14:39;2.83;;;1.42;;
78181;SDS011;67441;50.116;8.696;2023-07-02T02:15:31;3.97;;;1.90;;
78181;SDS011;67441;50.116;8.696;2023-07-02T02:16:22;3.83;;;1.92;;
78181;SDS011;67441;50.116;8.696;2023-07-02T02:17:13;3.90;;;1.92;;
78181;SDS011;67441;50.116;8.696;2023-07-02T02:18:04;3.50;;;2.05;;
78181;SDS011;67441;50.116;8.696;2023-07-02T02:18:55;2.92;;;1.70;;
78181;SDS011;67441;50.116;8.696;2023-07-02T02:19:46;3.17;;;1.70;;
78181;SDS011;67441;50.116;8.696;2023-07-02T02:20:38;4.72;;;1.90;;
78181;SDS011;67441;50.116;8.696;2023-07-02T02:21:29;2.47;;;2.05;;
78181;SDS011;67441;50.116;8.696;2023-07-02T02:22:19;4.97;;;2.30;;
78181;SDS011;67441;50.116;8.696;2023-07-02T02:23:10;3.28;;;2.00;;
78181;SDS011;67441;50.116;8.696;2023-07-02T02:24:01;3.33;;;2.00;;
78181;SDS011;67441;50.116;8.696;2023-07-02T02:24:52;4.10;;;2.08;;
78181;SDS011;67441;50.116;8.696;2023-07-02T02:25:42;3.75;;;2.10;;
78181;SDS011;67441;50.116;8.696;2023-07-02T02:26:34;3.17;;;2.10;;
78181;SDS011;67441;50.116;8.696;2023-07-02T02:27:00;2.92;;;1.90;;
78181;SDS011;67441;50.116;8.696;2023-07-02T02:27:50;3.72;;;2.20;;
78181;SDS011;67441;50.116;8.696;2023-07-02T02:28:42;3.10;;;2.00;;
78181;SDS011;67441;50.116;8.696;2023-07-02T02:29:08;3.13;;;2.42;;
78181;SDS011;67441;50.116;8.696;2023-07-02T02:29:59;4.43;;;2.10;;
78181;SDS011;67441;50.116;8.696;2023-07-02T02:30:50;3.20;;;1.88;;
78181;SDS011;67441;50.116;8.696;2023-07-02T02:31:42;3.70;;;1.80;;
78181;SDS011;67441;50.116;8.696;2023-07-02T02:32:08;4.43;;;2.17;;
78181;SDS011;67441;50.116;8.696;2023-07-02T02:32:59;2.33;;;1.80;;
78181;SDS011;67441;50.116;8.696;2023-07-02T02:33:49;3.88;;;2.13;;
78181;SDS011;67441;50.116;8.696;2023-07-02T02:34:40;4.78;;;1.95;;
78181;SDS011;67441;50.116;8.696;2023-07-02T02:35:32;2.25;;;1.90;;
78181;SDS011;67441;50.116;8.696;2023-07-02T02:36:22;4.63;;;2.30;;
78181;SDS011;67441;50.116;8.696;2023-07-02T02:37:14;3.63;;;1.80;;
78181;SDS011;67441;50.116;8.696;2023-07-02T02:38:04;3.35;;;1.83;;
78181;SDS011;67441;50.116;8.696;2023-07-02T02:38:55;3.75;;;2.00;;
78181;SDS011;67441;50.116;8.696;2023-07-02T02:39:46;2.97;;;1.70;;
78181;SDS011;67441;50.116;8.696;2023-07-02T02:40:37;2.88;;;2.10;;
78181;SDS011;67441;50.116;8.696;2023-07-02T02:41:28;2.97;;;2.13;;
78181;SDS011;67441;50.116;8.696;2023-07-02T02:42:19;3.20;;;1.77;;
78181;SDS011;67441;50.116;8.696;2023-07-02T02:43:10;3.35;;;2.08;;
78181;SDS011;67441;50.116;8.696;2023-07-02T02:44:00;4.75;;;2.20;;
78181;SDS011;67441;50.116;8.696;2023-07-02T02:44:51;2.67;;;1.90;;
78181;SDS011;67441;50.116;8.696;2023-07-02T02:45:42;5.03;;;1.90;;
78181;SDS011;67441;50.116;8.696;2023-07-02T02:46:33;3.10;;;1.98;;
78181;SDS011;67441;50.116;8.696;2023-07-02T02:47:24;3.83;;;2.10;;
78181;SDS011;67441;50.116;8.696;2023-07-02T02:48:15;2.90;;;2.03;;
78181;SDS011;67441;50.116;8.696;2023-07-02T02:49:06;3.13;;;1.70;;
78181;SDS011;67441;50.116;8.696;2023-07-02T02:49:56;3.15;;;2.00;;
78181;SDS011;67441;50.116;8.696;2023-07-02T02:50:47;4.28;;;1.95;;
78181;SDS011;67441;50.116;8.696;2023-07-02T02:51:38;2.33;;;1.73;;
78181;SDS011;67441;50.116;8.696;2023-07-02T02:52:05;4.82;;;1.80;;
78181;SDS011;67441;50.116;8.696;2023-07-02T02:52:56;2.85;;;1.90;;
78181;SDS011;67441;50.116;8.696;2023-07-02T02:53:47;3.05;;;1.92;;
78181;SDS011;67441;50.116;8.696;2023-07-02T02:54:38;3.92;;;1.90;;
78181;SDS011;67441;50.116;8.696;2023-07-02T02:55:31;3.55;;;2.30;;
78181;SDS011;67441;50.116;8.696;2023-07-02T02:56:21;2.80;;;2.08;;
78181;SDS011;67441;50.116;8.696;2023-07-02T02:57:12;3.50;;;2.17;;
78181;SDS011;67441;50.116;8.696;2023-07-02T02:57:38;4.40;;;2.17;;
78181;SDS011;67441;50.116;8.696;2023-07-02T02:58:29;4.43;;;2.08;;
78181;SDS011;67441;50.116;8.696;2023-07-02T02:59:20;3.42;;;2.00;;
78181;SDS011;67441;50.116;8.696;2023-07-02T03:00:11;6.10;;;2.30;;
78181;SDS011;67441;50.116;8.696;2023-07-02T03:01:03;4.55;;;2.35;;
78181;SDS011;67441;50.116;8.696;2023-07-02T03:02:00;4.43;;;2.25;;
78181;SDS011;67441;50.116;8.696;2023-07-02T03:02:51;3.63;;;2.30;;
78181;SDS011;67441;50.116;8.696;2023-07-02T03:03:42;3.97;;;2.13;;
78181;SDS011;67441;50.116;8.696;2023-07-02T03:04:10;4.15;;;2.33;;
78181;SDS011;67441;50.116;8.696;2023-07-02T03:05:05;4.43;;;2.10;;
78181;SDS011;67441;50.116;8.696;2023-07-02T03:05:31;5.88;;;2.20;;
78181;SDS011;67441;50.116;8.696;2023-07-02T03:06:22;4.15;;;2.17;;
78181;SDS011;67441;50.116;8.696;2023-07-02T03:07:13;4.43;;;1.90;;
78181;SDS011;67441;50.116;8.696;2023-07-02T03:08:04;5.63;;;2.42;;
78181;SDS011;67441;50.116;8.696;2023-07-02T03:08:30;4.13;;;2.20;;
78181;SDS011;67441;50.116;8.696;2023-07-02T03:09:21;3.42;;;2.40;;
78181;SDS011;67441;50.116;8.696;2023-07-02T03:10:12;2.95;;;2.05;;
78181;SDS011;67441;50.116;8.696;2023-07-02T03:11:03;6.05;;;3.88;;
78181;SDS011;67441;50.116;8.696;2023-07-02T03:11:53;3.85;;;2.10;;
78181;SDS011;67441;50.116;8.696;2023-07-02T03:12:45;4.85;;;2.50;;
78181;SDS011;67441;50.116;8.696;2023-07-02T03:13:35;3.78;;;2.50;;
78181;SDS011;67441;50.116;8.696;2023-07-02T03:14:26;4.90;;;2.50;;
78181;SDS011;67441;50.116;8.696;2023-07-02T03:15:18;5.57;;;2.40;;
78181;SDS011;67441;50.116;8.696;2023-07-02T03:16:09;5.22;;;2.42;;
78181;SDS011;67441;50.116;8.696;2023-07-02T03:16:59;5.20;;;2.70;;
78181;SDS011;67441;50.116;8.696;2023-07-02T03:17:50;5.90;;;2.60;;
78181;SDS011;67441;50.116;8.696;2023-07-02T03:18:41;7.30;;;2.28;;
78181;SDS011;67441;50.116;8.696;2023-07-02T03:19:32;6.88;;;2.33;;
78181;SDS011;67441;50.116;8.696;2023-07-02T03:19:58;3.63;;;2.20;;
78181;SDS011;67441;50.116;8.696;2023-07-02T03:20:24;5.53;;;2.80;;
78181;SDS011;67441;50.116;8.696;2023-07-02T03:21:15;5.45;;;2.80;;
78181;SDS011;67441;50.116;8.696;2023-07-02T03:22:06;3.60;;;2.40;;
78181;SDS011;67441;50.116;8.696;2023-07-02T03:22:57;3.72;;;2.75;;
78181;SDS011;67441;50.116;8.696;2023-07-02T03:23:48;4.50;;;2.58;;
78181;SDS011;67441;50.116;8.696;2023-07-02T03:24:38;5.05;;;2.78;;
78181;SDS011;67441;50.116;8.696;2023-07-02T03:25:29;5.10;;;3.05;;
78181;SDS011;67441;50.116;8.696;2023-07-02T03:26:20;6.28;;;2.83;;
78181;SDS011;67441;50.116;8.696;2023-07-02T03:26:46;4.53;;;2.67;;
78181;SDS011;67441;50.116;8.696;2023-07-02T03:27:37;3.65;;;2.50;;
78181;SDS011;67441;50.116;8.696;2023-07-02T03:28:28;4.57;;;2.80;;
78181;SDS011;67441;50.116;8.696;2023-07-02T03:29:19;7.20;;;3.00;;
78181;SDS011;67441;50.116;8.696;2023-07-02T03:29:45;5.47;;;2.75;;
78181;SDS011;67441;50.116;8.696;2023-07-02T03:30:36;7.07;;;3.50;;
78181;SDS011;67441;50.116;8.696;2023-07-02T03:31:27;5.57;;;3.08;;
78181;SDS011;67441;50.116;8.696;2023-07-02T03:32:18;6.78;;;3.22;;
78181;SDS011;67441;50.116;8.696;2023-07-02T03:33:09;6.78;;;2.60;;
78181;SDS011;67441;50.116;8.696;2023-07-02T03:33:37;4.68;;;2.88;;
78181;SDS011;67441;50.116;8.696;2023-07-02T03:34:29;5.40;;;3.30;;
78181;SDS011;67441;50.116;8.696;2023-07-02T03:35:20;7.20;;;3.33;;
78181;SDS011;67441;50.116;8.696;2023-07-02T03:36:11;7.55;;;3.30;;
78181;SDS011;67441;50.116;8.696;2023-07-02T03:37:02;6.43;;;3.38;;
78181;SDS011;67441;50.116;8.696;2023-07-02T03:37:53;5.88;;;3.08;;
78181;SDS011;67441;50.116;8.696;2023-07-02T03:38:44;5.85;;;3.10;;
78181;SDS011;67441;50.116;8.696;2023-07-02T03:39:35;8.35;;;3.53;;
78181;SDS011;67441;50.116;8.696;2023-07-02T03:40:26;5.43;;;2.75;;
78181;SDS011;67441;50.116;8.696;2023-07-02T03:41:17;7.28;;;3.10;;
78181;SDS011;67441;50.116;8.696;2023-07-02T03:42:08;4.95;;;2.78;;
78181;SDS011;67441;50.116;8.696;2023-07-02T03:42:59;7.13;;;3.15;;
78181;SDS011;67441;50.116;8.696;2023-07-02T03:43:51;7.13;;;3.20;;
78181;SDS011;67441;50.116;8.696;2023-07-02T03:44:41;8.48;;;3.60;;
78181;SDS011;67441;50.116;8.696;2023-07-02T03:45:32;7.07;;;3.55;;
78181;SDS011;67441;50.116;8.696;2023-07-02T03:46:23;6.78;;;2.92;;
78181;SDS011;67441;50.116;8.696;2023-07-02T03:47:15;4.82;;;3.03;;
78181;SDS011;67441;50.116;8.696;2023-07-02T03:48:06;6.75;;;3.13;;
78181;SDS011;67441;50.116;8.696;2023-07-02T03:48:57;8.05;;;3.20;;
78181;SDS011;67441;50.116;8.696;2023-07-02T03:49:48;5.40;;;2.75;;
78181;SDS011;67441;50.116;8.696;2023-07-02T03:50:39;7.20;;;3.20;;
78181;SDS011;67441;50.116;8.696;2023-07-02T03:51:30;6.25;;;3.20;;
78181;SDS011;67441;50.116;8.696;2023-07-02T03:52:21;5.07;;;3.20;;
78181;SDS011;67441;50.116;8.696;2023-07-02T03:53:12;7.82;;;3.75;;
78181;SDS011;67441;50.116;8.696;2023-07-02T03:54:03;5.10;;;3.03;;
78181;SDS011;67441;50.116;8.696;2023-07-02T03:54:53;7.60;;;3.58;;
78181;SDS011;67441;50.116;8.696;2023-07-02T03:55:45;7.80;;;3.70;;
78181;SDS011;67441;50.116;8.696;2023-07-02T03:56:38;6.18;;;3.30;;
78181;SDS011;67441;50.116;8.696;2023-07-02T03:57:03;5.95;;;3.22;;
78181;SDS011;67441;50.116;8.696;2023-07-02T03:57:55;8.25;;;3.20;;
78181;SDS011;67441;50.116;8.696;2023-07-02T03:58:46;7.30;;;3.55;;
78181;SDS011;67441;50.116;8.696;2023-07-02T03:59:37;6.20;;;2.83;;
78181;SDS011;67441;50.116;8.696;2023-07-02T04:00:30;6.45;;;3.35;;
78181;SDS011;67441;50.116;8.696;2023-07-02T04:01:20;5.50;;;3.50;;
78181;SDS011;67441;50.116;8.696;2023-07-02T04:02:11;7.35;;;3.85;;
78181;SDS011;67441;50.116;8.696;2023-07-02T04:03:02;5.97;;;3.28;;
78181;SDS011;67441;50.116;8.696;2023-07-02T04:03:53;5.80;;;2.75;;
78181;SDS011;67441;50.116;8.696;2023-07-02T04:04:44;5.65;;;3.15;;
78181;SDS011;67441;50.116;8.696;2023-07-02T04:05:35;6.78;;;3.10;;
78181;SDS011;67441;50.116;8.696;2023-07-02T04:06:26;4.97;;;2.75;;
78181;SDS011;67441;50.116;8.696;2023-07-02T04:07:17;6.18;;;2.95;;
78181;SDS011;67441;50.116;8.696;2023-07-02T04:08:08;5.28;;;2.72;;
78181;SDS011;67441;50.116;8.696;2023-07-02T04:08:59;6.93;;;2.70;;
78181;SDS011;67441;50.116;8.696;2023-07-02T04:09:50;4.53;;;2.70;;
78181;SDS011;67441;50.116;8.696;2023-07-02T04:10:40;4.75;;;2.65;;
78181;SDS011;67441;50.116;8.696;2023-07-02T04:11:32;4.28;;;2.88;;
78181;SDS011;67441;50.116;8.696;2023-07-02T04:12:22;4.38;;;2.70;;
78181;SDS011;67441;50.116;8.696;2023-07-02T04:13:13;4.72;;;2.83;;
78181;SDS011;67441;50.116;8.696;2023-07-02T04:14:04;4.50;;;2.90;;
78181;SDS011;67441;50.116;8.696;2023-07-02T04:14:55;5.32;;;2.83;;
78181;SDS011;67441;50.116;8.696;2023-07-02T04:15:46;4.60;;;2.75;;
78181;SDS011;67441;50.116;8.696;2023-07-02T04:16:12;4.18;;;2.67;;
78181;SDS011;67441;50.116;8.696;2023-07-02T04:17:02;3.83;;;2.40;;
78181;SDS011;67441;50.116;8.696;2023-07-02T04:17:54;5.75;;;2.67;;
78181;SDS011;67441;50.116;8.696;2023-07-02T04:18:45;5.32;;;2.55;;
78181;SDS011;67441;50.116;8.696;2023-07-02T04:19:35;5.78;;;2.83;;
78181;SDS011;67441;50.116;8.696;2023-07-02T04:20:31;4.55;;;2.95;;
78181;SDS011;67441;50.116;8.696;2023-07-02T04:21:23;6.60;;;2.95;;
78181;SDS011;67441;50.116;8.696;2023-07-02T04:22:14;3.78;;;2.55;;
78181;SDS011;67441;50.116;8.696;2023-07-02T04:23:05;5.35;;;3.00;;
78181;SDS011;67441;50.116;8.696;2023-07-02T04:23:31;4.18;;;2.97;;
78181;SDS011;67441;50.116;8.696;2023-07-02T04:24:23;5.20;;;3.08;;
78181;SDS011;67441;50.116;8.696;2023-07-02T04:25:14;5.68;;;2.70;;
78181;SDS011;67441;50.116;8.696;2023-07-02T04:25:40;4.95;;;2.90;;
78181;SDS011;67441;50.116;8.696;2023-07-02T04:26:31;5.60;;;2.92;;
78181;SDS011;67441;50.116;8.696;2023-07-02T04:27:22;5.32;;;3.00;;
78181;SDS011;67441;50.116;8.696;2023-07-02T04:28:12;5.32;;;3.03;;
78181;SDS011;67441;50.116;8.696;2023-07-02T04:29:03;4.32;;;2.78;;
78181;SDS011;67441;50.116;8.696;2023-07-02T04:29:54;5.90;;;2.78;;
78181;SDS011;67441;50.116;8.696;2023-07-02T04:30:20;4.60;;;2.88;;
78181;SDS011;67441;50.116;8.696;2023-07-02T04:31:14;6.35;;;2.88;;
78181;SDS011;67441;50.116;8.696;2023-07-02T04:32:05;5.88;;;3.25;;
78181;SDS011;67441;50.116;8.696;2023-07-02T04:32:56;6.47;;;3.25;;
78181;SDS011;67441;50.116;8.696;2023-07-02T04:33:47;6.18;;;2.78;;
78181;SDS011;67441;50.116;8.696;2023-07-02T04:34:38;6.15;;;3.30;;
78181;SDS011;67441;50.116;8.696;2023-07-02T04:35:29;7.35;;;3.30;;
78181;SDS011;67441;50.116;8.696;2023-07-02T04:36:20;5.15;;;2.97;;
78181;SDS011;67441;50.116;8.696;2023-07-02T04:37:11;5.85;;;3.30;;
78181;SDS011;67441;50.116;8.696;2023-07-02T04:38:02;5.88;;;3.50;;